sensor_id;sensor_type;location;lat;lon;timestamp;P1;durP1;ratioP1;P2;durP2;ratioP2
31974;SDS011;18500;43.618;1.474;2022-11-20T00:02:10;555.40;;;517.67;;
31974;SDS011;18500;43.618;1.474;2022-11-20T00:04:36;634.75;;;590.00;;
31974;SDS011;18500;43.618;1.474;2022-11-20T00:07:02;638.00;;;593.45;;
31974;SDS011;18500;43.618;1.474;2022-11-20T00:09:27;567.28;;;528.53;;
31974;SDS011;18500;43.618;1.474;2022-11-20T00:11:53;580.58;;;540.28;;
31974;SDS011;18500;43.618;1.474;2022-11-20T00:14:19;557.03;;;518.67;;
31974;SDS011;18500;43.618;1.474;2022-11-20T00:16:44;563.22;;;525.30;;
31974;SDS011;18500;43.618;1.474;2022-11-20T00:19:10;591.85;;;550.50;;
31974;SDS011;18500;43.618;1.474;2022-11-20T00:21:35;589.90;;;548.88;;
31974;SDS011;18500;43.618;1.474;2022-11-20T00:24:01;608.45;;;566.03;;
31974;SDS011;18500;43.618;1.474;2022-11-20T00:26:27;681.03;;;633.13;;
31974;SDS011;18500;43.618;1.474;2022-11-20T00:28:54;549.83;;;512.92;;
31974;SDS011;18500;43.618;1.474;2022-11-20T00:31:24;547.45;;;509.80;;
31974;SDS011;18500;43.618;1.474;2022-11-20T00:33:50;727.38;;;675.40;;
31974;SDS011;18500;43.618;1.474;2022-11-20T00:36:17;651.70;;;605.80;;
31974;SDS011;18500;43.618;1.474;2022-11-20T00:38:44;657.65;;;611.20;;
31974;SDS011;18500;43.618;1.474;2022-11-20T00:41:11;551.25;;;514.05;;
31974;SDS011;18500;43.618;1.474;2022-11-20T00:43:41;545.88;;;509.02;;
31974;SDS011;18500;43.618;1.474;2022-11-20T00:46:08;517.28;;;481.88;;
31974;SDS011;18500;43.618;1.474;2022-11-20T00:48:37;576.15;;;537.00;;
31974;SDS011;18500;43.618;1.474;2022-11-20T00:51:03;573.63;;;534.45;;
31974;SDS011;18500;43.618;1.474;2022-11-20T00:53:29;588.88;;;548.55;;
31974;SDS011;18500;43.618;1.474;2022-11-20T00:55:56;677.08;;;630.05;;
31974;SDS011;18500;43.618;1.474;2022-11-20T00:58:24;587.38;;;546.45;;
31974;SDS011;18500;43.618;1.474;2022-11-20T01:00:53;597.08;;;554.88;;
31974;SDS011;18500;43.618;1.474;2022-11-20T01:03:30;580.38;;;540.30;;
31974;SDS011;18500;43.618;1.474;2022-11-20T01:05:59;581.72;;;541.78;;
31974;SDS011;18500;43.618;1.474;2022-11-20T01:08:28;645.05;;;599.83;;
31974;SDS011;18500;43.618;1.474;2022-11-20T01:11:02;543.17;;;506.17;;
31974;SDS011;18500;43.618;1.474;2022-11-20T01:13:32;545.28;;;508.73;;
31974;SDS011;18500;43.618;1.474;2022-11-20T01:16:09;596.92;;;555.65;;
31974;SDS011;18500;43.618;1.474;2022-11-20T01:18:38;587.58;;;547.50;;
31974;SDS011;18500;43.618;1.474;2022-11-20T01:21:06;612.63;;;570.67;;
31974;SDS011;18500;43.618;1.474;2022-11-20T01:23:37;590.05;;;548.95;;
31974;SDS011;18500;43.618;1.474;2022-11-20T01:26:05;530.55;;;494.77;;
31974;SDS011;18500;43.618;1.474;2022-11-20T01:28:32;585.10;;;545.13;;
31974;SDS011;18500;43.618;1.474;2022-11-20T01:30:59;611.65;;;568.95;;
31974;SDS011;18500;43.618;1.474;2022-11-20T01:33:25;700.95;;;650.28;;
31974;SDS011;18500;43.618;1.474;2022-11-20T01:35:51;620.08;;;577.80;;
31974;SDS011;18500;43.618;1.474;2022-11-20T01:38:17;604.17;;;562.60;;
31974;SDS011;18500;43.618;1.474;2022-11-20T01:40:45;661.90;;;615.42;;
31974;SDS011;18500;43.618;1.474;2022-11-20T01:43:19;513.53;;;479.33;;
31974;SDS011;18500;43.618;1.474;2022-11-20T01:48:27;542.72;;;506.17;;
31974;SDS011;18500;43.618;1.474;2022-11-20T01:51:04;567.53;;;529.70;;
31974;SDS011;18500;43.618;1.474;2022-11-20T01:53:37;623.95;;;580.40;;
31974;SDS011;18500;43.618;1.474;2022-11-20T01:56:03;548.15;;;510.60;;
31974;SDS011;18500;43.618;1.474;2022-11-20T01:58:35;595.05;;;554.00;;
31974;SDS011;18500;43.618;1.474;2022-11-20T02:01:04;619.88;;;576.72;;
31974;SDS011;18500;43.618;1.474;2022-11-20T02:03:30;572.50;;;532.97;;
31974;SDS011;18500;43.618;1.474;2022-11-20T02:08:44;574.22;;;535.08;;
31974;SDS011;18500;43.618;1.474;2022-11-20T02:11:10;557.78;;;519.53;;
31974;SDS011;18500;43.618;1.474;2022-11-20T02:13:37;556.13;;;518.90;;
31974;SDS011;18500;43.618;1.474;2022-11-20T02:16:31;552.65;;;515.33;;
31974;SDS011;18500;43.618;1.474;2022-11-20T02:18:57;522.88;;;488.27;;
31974;SDS011;18500;43.618;1.474;2022-11-20T02:21:30;508.42;;;476.02;;
31974;SDS011;18500;43.618;1.474;2022-11-20T02:24:19;522.40;;;488.75;;
31974;SDS011;18500;43.618;1.474;2022-11-20T02:26:49;515.03;;;482.77;;
31974;SDS011;18500;43.618;1.474;2022-11-20T02:29:26;565.15;;;528.95;;
31974;SDS011;18500;43.618;1.474;2022-11-20T02:32:17;491.02;;;460.35;;
31974;SDS011;18500;43.618;1.474;2022-11-20T02:34:50;456.98;;;428.70;;
31974;SDS011;18500;43.618;1.474;2022-11-20T02:37:16;469.92;;;440.75;;
31974;SDS011;18500;43.618;1.474;2022-11-20T02:39:43;509.85;;;478.38;;
31974;SDS011;18500;43.618;1.474;2022-11-20T02:42:12;477.70;;;447.67;;
31974;SDS011;18500;43.618;1.474;2022-11-20T02:44:38;456.85;;;428.42;;
31974;SDS011;18500;43.618;1.474;2022-11-20T02:47:04;525.38;;;491.38;;
31974;SDS011;18500;43.618;1.474;2022-11-20T02:49:30;447.45;;;420.63;;
31974;SDS011;18500;43.618;1.474;2022-11-20T02:51:55;461.73;;;433.08;;
31974;SDS011;18500;43.618;1.474;2022-11-20T02:54:21;534.03;;;499.23;;
31974;SDS011;18500;43.618;1.474;2022-11-20T02:56:47;593.70;;;554.42;;
31974;SDS011;18500;43.618;1.474;2022-11-20T02:59:13;492.08;;;461.05;;
31974;SDS011;18500;43.618;1.474;2022-11-20T03:01:38;524.97;;;490.27;;
31974;SDS011;18500;43.618;1.474;2022-11-20T03:04:04;536.25;;;501.58;;
31974;SDS011;18500;43.618;1.474;2022-11-20T03:06:30;572.35;;;534.58;;
31974;SDS011;18500;43.618;1.474;2022-11-20T03:08:56;507.60;;;474.98;;
31974;SDS011;18500;43.618;1.474;2022-11-20T03:11:22;501.67;;;468.80;;
31974;SDS011;18500;43.618;1.474;2022-11-20T03:13:47;561.45;;;523.72;;
31974;SDS011;18500;43.618;1.474;2022-11-20T03:16:17;613.85;;;572.08;;
31974;SDS011;18500;43.618;1.474;2022-11-20T03:18:45;537.85;;;502.48;;
31974;SDS011;18500;43.618;1.474;2022-11-20T03:21:11;411.88;;;386.95;;
31974;SDS011;18500;43.618;1.474;2022-11-20T03:23:39;532.85;;;497.70;;
31974;SDS011;18500;43.618;1.474;2022-11-20T03:26:12;382.00;;;358.98;;
31974;SDS011;18500;43.618;1.474;2022-11-20T03:28:53;568.85;;;530.38;;
31974;SDS011;18500;43.618;1.474;2022-11-20T03:31:24;482.73;;;451.58;;
31974;SDS011;18500;43.618;1.474;2022-11-20T03:33:51;415.88;;;391.00;;
31974;SDS011;18500;43.618;1.474;2022-11-20T03:36:18;414.08;;;389.00;;
31974;SDS011;18500;43.618;1.474;2022-11-20T03:38:45;412.38;;;388.00;;
31974;SDS011;18500;43.618;1.474;2022-11-20T03:41:12;399.60;;;375.48;;
31974;SDS011;18500;43.618;1.474;2022-11-20T03:43:46;496.67;;;465.70;;
31974;SDS011;18500;43.618;1.474;2022-11-20T03:46:13;398.83;;;375.02;;
31974;SDS011;18500;43.618;1.474;2022-11-20T03:48:38;390.58;;;366.75;;
31974;SDS011;18500;43.618;1.474;2022-11-20T03:53:33;393.40;;;370.02;;
31974;SDS011;18500;43.618;1.474;2022-11-20T03:55:59;441.40;;;414.55;;
31974;SDS011;18500;43.618;1.474;2022-11-20T03:58:25;489.67;;;458.33;;
31974;SDS011;18500;43.618;1.474;2022-11-20T04:00:51;441.38;;;415.85;;
31974;SDS011;18500;43.618;1.474;2022-11-20T04:03:16;487.23;;;456.80;;
31974;SDS011;18500;43.618;1.474;2022-11-20T04:05:42;446.60;;;419.50;;
31974;SDS011;18500;43.618;1.474;2022-11-20T04:08:07;469.35;;;440.45;;
31974;SDS011;18500;43.618;1.474;2022-11-20T04:10:33;470.02;;;441.60;;
31974;SDS011;18500;43.618;1.474;2022-11-20T04:12:59;447.60;;;421.25;;
31974;SDS011;18500;43.618;1.474;2022-11-20T04:15:24;457.08;;;428.98;;
31974;SDS011;18500;43.618;1.474;2022-11-20T04:17:50;439.25;;;413.40;;
31974;SDS011;18500;43.618;1.474;2022-11-20T04:20:16;486.02;;;455.52;;
31974;SDS011;18500;43.618;1.474;2022-11-20T04:22:41;538.42;;;503.42;;
31974;SDS011;18500;43.618;1.474;2022-11-20T04:25:07;531.88;;;496.38;;
31974;SDS011;18500;43.618;1.474;2022-11-20T04:27:33;522.50;;;489.42;;
31974;SDS011;18500;43.618;1.474;2022-11-20T04:29:59;581.63;;;543.13;;
31974;SDS011;18500;43.618;1.474;2022-11-20T04:32:24;542.17;;;505.88;;
31974;SDS011;18500;43.618;1.474;2022-11-20T04:34:50;552.78;;;516.33;;
31974;SDS011;18500;43.618;1.474;2022-11-20T04:37:15;573.78;;;536.67;;
31974;SDS011;18500;43.618;1.474;2022-11-20T04:39:41;501.63;;;470.10;;
31974;SDS011;18500;43.618;1.474;2022-11-20T04:42:08;444.85;;;418.15;;
31974;SDS011;18500;43.618;1.474;2022-11-20T04:45:04;478.95;;;448.50;;
31974;SDS011;18500;43.618;1.474;2022-11-20T04:47:30;513.83;;;480.92;;
31974;SDS011;18500;43.618;1.474;2022-11-20T04:49:55;590.30;;;551.10;;
31974;SDS011;18500;43.618;1.474;2022-11-20T04:52:21;571.83;;;533.42;;
31974;SDS011;18500;43.618;1.474;2022-11-20T04:54:47;478.90;;;449.38;;
31974;SDS011;18500;43.618;1.474;2022-11-20T04:57:13;470.88;;;442.60;;
31974;SDS011;18500;43.618;1.474;2022-11-20T04:59:39;591.75;;;551.17;;
31974;SDS011;18500;43.618;1.474;2022-11-20T05:02:05;555.47;;;518.58;;
31974;SDS011;18500;43.618;1.474;2022-11-20T05:04:30;486.48;;;455.92;;
31974;SDS011;18500;43.618;1.474;2022-11-20T05:06:56;549.25;;;513.13;;
31974;SDS011;18500;43.618;1.474;2022-11-20T05:09:21;558.60;;;521.90;;
31974;SDS011;18500;43.618;1.474;2022-11-20T05:11:47;446.30;;;418.45;;
31974;SDS011;18500;43.618;1.474;2022-11-20T05:14:13;493.17;;;461.48;;
31974;SDS011;18500;43.618;1.474;2022-11-20T05:16:38;489.13;;;458.10;;
31974;SDS011;18500;43.618;1.474;2022-11-20T05:19:04;465.80;;;436.73;;
31974;SDS011;18500;43.618;1.474;2022-11-20T05:21:30;408.15;;;383.20;;
31974;SDS011;18500;43.618;1.474;2022-11-20T05:23:57;318.73;;;299.13;;
31974;SDS011;18500;43.618;1.474;2022-11-20T05:26:22;386.75;;;363.58;;
31974;SDS011;18500;43.618;1.474;2022-11-20T05:28:49;349.02;;;327.80;;
31974;SDS011;18500;43.618;1.474;2022-11-20T05:31:16;347.02;;;325.63;;
31974;SDS011;18500;43.618;1.474;2022-11-20T05:33:44;481.08;;;450.63;;
31974;SDS011;18500;43.618;1.474;2022-11-20T05:36:11;490.48;;;458.55;;
31974;SDS011;18500;43.618;1.474;2022-11-20T05:38:38;433.88;;;407.38;;
31974;SDS011;18500;43.618;1.474;2022-11-20T05:43:31;432.98;;;406.30;;
31974;SDS011;18500;43.618;1.474;2022-11-20T05:45:58;414.60;;;389.05;;
31974;SDS011;18500;43.618;1.474;2022-11-20T05:48:24;432.00;;;405.60;;
31974;SDS011;18500;43.618;1.474;2022-11-20T05:50:50;438.77;;;412.77;;
31974;SDS011;18500;43.618;1.474;2022-11-20T05:53:15;416.35;;;390.02;;
31974;SDS011;18500;43.618;1.474;2022-11-20T05:55:41;420.48;;;394.77;;
31974;SDS011;18500;43.618;1.474;2022-11-20T05:58:07;432.85;;;404.75;;
31974;SDS011;18500;43.618;1.474;2022-11-20T06:00:32;394.85;;;370.40;;
31974;SDS011;18500;43.618;1.474;2022-11-20T06:02:58;433.80;;;406.90;;
31974;SDS011;18500;43.618;1.474;2022-11-20T06:05:24;474.10;;;444.42;;
31974;SDS011;18500;43.618;1.474;2022-11-20T06:07:49;458.70;;;429.23;;
31974;SDS011;18500;43.618;1.474;2022-11-20T06:10:15;461.40;;;431.77;;
31974;SDS011;18500;43.618;1.474;2022-11-20T06:12:41;466.85;;;437.23;;
31974;SDS011;18500;43.618;1.474;2022-11-20T06:15:06;524.63;;;491.00;;
31974;SDS011;18500;43.618;1.474;2022-11-20T06:17:32;523.30;;;489.05;;
31974;SDS011;18500;43.618;1.474;2022-11-20T06:19:58;438.73;;;411.23;;
31974;SDS011;18500;43.618;1.474;2022-11-20T06:22:24;467.73;;;437.63;;
31974;SDS011;18500;43.618;1.474;2022-11-20T06:24:49;543.20;;;505.92;;
31974;SDS011;18500;43.618;1.474;2022-11-20T06:27:15;508.23;;;474.58;;
31974;SDS011;18500;43.618;1.474;2022-11-20T06:29:41;451.08;;;421.55;;
31974;SDS011;18500;43.618;1.474;2022-11-20T06:32:07;548.00;;;512.10;;
31974;SDS011;18500;43.618;1.474;2022-11-20T06:34:32;442.42;;;414.42;;
31974;SDS011;18500;43.618;1.474;2022-11-20T06:36:58;441.50;;;413.48;;
31974;SDS011;18500;43.618;1.474;2022-11-20T06:39:24;461.25;;;432.08;;
31974;SDS011;18500;43.618;1.474;2022-11-20T06:41:49;446.90;;;418.05;;
31974;SDS011;18500;43.618;1.474;2022-11-20T06:44:15;462.70;;;430.42;;
31974;SDS011;18500;43.618;1.474;2022-11-20T06:46:40;499.45;;;461.55;;
31974;SDS011;18500;43.618;1.474;2022-11-20T06:49:06;483.85;;;446.83;;
31974;SDS011;18500;43.618;1.474;2022-11-20T06:51:32;492.55;;;453.90;;
31974;SDS011;18500;43.618;1.474;2022-11-20T06:53:57;443.83;;;410.25;;
31974;SDS011;18500;43.618;1.474;2022-11-20T06:56:23;456.73;;;424.00;;
31974;SDS011;18500;43.618;1.474;2022-11-20T06:58:49;470.77;;;435.42;;
31974;SDS011;18500;43.618;1.474;2022-11-20T07:01:14;437.80;;;407.90;;
31974;SDS011;18500;43.618;1.474;2022-11-20T07:03:40;462.00;;;430.15;;
31974;SDS011;18500;43.618;1.474;2022-11-20T07:06:07;583.92;;;540.05;;
31974;SDS011;18500;43.618;1.474;2022-11-20T07:08:33;516.45;;;482.27;;
31974;SDS011;18500;43.618;1.474;2022-11-20T07:11:00;436.20;;;408.40;;
31974;SDS011;18500;43.618;1.474;2022-11-20T07:13:27;467.75;;;437.65;;
31974;SDS011;18500;43.618;1.474;2022-11-20T07:15:53;452.08;;;423.27;;
31974;SDS011;18500;43.618;1.474;2022-11-20T07:18:19;467.50;;;436.92;;
31974;SDS011;18500;43.618;1.474;2022-11-20T07:20:45;443.00;;;414.02;;
31974;SDS011;18500;43.618;1.474;2022-11-20T07:23:11;438.35;;;410.55;;
31974;SDS011;18500;43.618;1.474;2022-11-20T07:25:36;432.80;;;404.60;;
31974;SDS011;18500;43.618;1.474;2022-11-20T07:28:02;475.13;;;442.58;;
31974;SDS011;18500;43.618;1.474;2022-11-20T07:30:29;539.65;;;500.38;;
31974;SDS011;18500;43.618;1.474;2022-11-20T07:32:55;444.70;;;415.15;;
31974;SDS011;18500;43.618;1.474;2022-11-20T07:35:22;519.95;;;483.63;;
31974;SDS011;18500;43.618;1.474;2022-11-20T07:37:49;477.25;;;443.95;;
31974;SDS011;18500;43.618;1.474;2022-11-20T07:40:15;450.00;;;419.15;;
31974;SDS011;18500;43.618;1.474;2022-11-20T07:42:50;447.05;;;416.50;;
31974;SDS011;18500;43.618;1.474;2022-11-20T07:45:17;485.13;;;451.75;;
31974;SDS011;18500;43.618;1.474;2022-11-20T07:47:43;496.58;;;463.95;;
31974;SDS011;18500;43.618;1.474;2022-11-20T07:50:09;482.23;;;450.50;;
31974;SDS011;18500;43.618;1.474;2022-11-20T07:52:36;474.60;;;444.63;;
31974;SDS011;18500;43.618;1.474;2022-11-20T07:55:01;449.92;;;421.65;;
31974;SDS011;18500;43.618;1.474;2022-11-20T07:57:27;465.77;;;435.95;;
31974;SDS011;18500;43.618;1.474;2022-11-20T07:59:53;497.30;;;464.58;;
31974;SDS011;18500;43.618;1.474;2022-11-20T08:02:18;514.25;;;480.65;;
31974;SDS011;18500;43.618;1.474;2022-11-20T08:04:44;450.33;;;421.27;;
31974;SDS011;18500;43.618;1.474;2022-11-20T08:07:09;512.30;;;479.48;;
31974;SDS011;18500;43.618;1.474;2022-11-20T08:09:35;467.35;;;439.45;;
31974;SDS011;18500;43.618;1.474;2022-11-20T08:12:01;483.90;;;454.42;;
31974;SDS011;18500;43.618;1.474;2022-11-20T08:14:45;400.00;;;376.23;;
31974;SDS011;18500;43.618;1.474;2022-11-20T08:17:10;274.63;;;256.08;;
31974;SDS011;18500;43.618;1.474;2022-11-20T08:19:37;446.08;;;417.38;;
31974;SDS011;18500;43.618;1.474;2022-11-20T08:22:02;426.05;;;398.98;;
31974;SDS011;18500;43.618;1.474;2022-11-20T08:24:28;454.00;;;425.15;;
31974;SDS011;18500;43.618;1.474;2022-11-20T08:26:56;436.83;;;409.73;;
31974;SDS011;18500;43.618;1.474;2022-11-20T08:29:24;413.27;;;386.67;;
31974;SDS011;18500;43.618;1.474;2022-11-20T08:31:50;391.25;;;366.23;;
31974;SDS011;18500;43.618;1.474;2022-11-20T08:34:16;421.52;;;394.70;;
31974;SDS011;18500;43.618;1.474;2022-11-20T08:36:42;364.75;;;341.42;;
31974;SDS011;18500;43.618;1.474;2022-11-20T08:39:07;356.10;;;332.85;;
31974;SDS011;18500;43.618;1.474;2022-11-20T08:41:36;412.25;;;384.73;;
31974;SDS011;18500;43.618;1.474;2022-11-20T08:44:03;480.08;;;449.15;;
31974;SDS011;18500;43.618;1.474;2022-11-20T08:46:36;459.80;;;430.50;;
31974;SDS011;18500;43.618;1.474;2022-11-20T08:49:07;378.30;;;354.52;;
31974;SDS011;18500;43.618;1.474;2022-11-20T08:51:35;373.92;;;350.45;;
31974;SDS011;18500;43.618;1.474;2022-11-20T08:54:02;387.60;;;362.70;;
31974;SDS011;18500;43.618;1.474;2022-11-20T08:56:28;383.20;;;359.23;;
31974;SDS011;18500;43.618;1.474;2022-11-20T08:58:54;479.83;;;449.77;;
31974;SDS011;18500;43.618;1.474;2022-11-20T09:01:21;383.13;;;358.55;;
31974;SDS011;18500;43.618;1.474;2022-11-20T09:03:48;370.85;;;347.42;;
31974;SDS011;18500;43.618;1.474;2022-11-20T09:06:14;440.25;;;412.65;;
31974;SDS011;18500;43.618;1.474;2022-11-20T09:08:41;525.50;;;492.40;;
31974;SDS011;18500;43.618;1.474;2022-11-20T09:11:07;520.88;;;487.67;;
31974;SDS011;18500;43.618;1.474;2022-11-20T09:13:34;571.78;;;532.55;;
31974;SDS011;18500;43.618;1.474;2022-11-20T09:16:05;533.65;;;498.52;;
31974;SDS011;18500;43.618;1.474;2022-11-20T09:18:32;614.00;;;571.95;;
31974;SDS011;18500;43.618;1.474;2022-11-20T09:21:02;616.15;;;574.75;;
31974;SDS011;18500;43.618;1.474;2022-11-20T09:23:33;574.22;;;535.38;;
31974;SDS011;18500;43.618;1.474;2022-11-20T09:26:33;606.08;;;566.13;;
31974;SDS011;18500;43.618;1.474;2022-11-20T09:28:52;713.85;;;665.28;;
31974;SDS011;18500;43.618;1.474;2022-11-20T09:31:24;728.35;;;676.38;;
31974;SDS011;18500;43.618;1.474;2022-11-20T09:33:51;600.92;;;559.88;;
31974;SDS011;18500;43.618;1.474;2022-11-20T09:36:16;618.67;;;578.13;;
31974;SDS011;18500;43.618;1.474;2022-11-20T09:38:44;405.80;;;380.65;;
31974;SDS011;18500;43.618;1.474;2022-11-20T09:41:17;456.48;;;427.50;;
31974;SDS011;18500;43.618;1.474;2022-11-20T09:55:38;524.60;;;490.13;;
31974;SDS011;18500;43.618;1.474;2022-11-20T09:58:07;441.38;;;414.67;;
31974;SDS011;18500;43.618;1.474;2022-11-20T10:00:49;349.50;;;328.42;;
31974;SDS011;18500;43.618;1.474;2022-11-20T10:03:19;700.75;;;647.63;;
31974;SDS011;18500;43.618;1.474;2022-11-20T10:05:55;622.28;;;578.90;;
31974;SDS011;18500;43.618;1.474;2022-11-20T10:08:39;774.47;;;714.60;;
31974;SDS011;18500;43.618;1.474;2022-11-20T10:16:36;538.22;;;502.30;;
31974;SDS011;18500;43.618;1.474;2022-11-20T10:24:41;518.38;;;483.10;;
31974;SDS011;18500;43.618;1.474;2022-11-20T10:30:16;867.95;;;802.30;;
31974;SDS011;18500;43.618;1.474;2022-11-20T10:33:08;460.67;;;432.73;;
31974;SDS011;18500;43.618;1.474;2022-11-20T10:35:40;464.10;;;434.15;;
31974;SDS011;18500;43.618;1.474;2022-11-20T10:38:14;492.20;;;458.45;;
31974;SDS011;18500;43.618;1.474;2022-11-20T10:41:00;487.55;;;454.27;;
31974;SDS011;18500;43.618;1.474;2022-11-20T10:43:46;728.55;;;674.55;;
31974;SDS011;18500;43.618;1.474;2022-11-20T10:46:16;685.00;;;634.13;;
31974;SDS011;18500;43.618;1.474;2022-11-20T10:48:49;851.35;;;788.03;;
31974;SDS011;18500;43.618;1.474;2022-11-20T10:57:00;484.95;;;454.55;;
31974;SDS011;18500;43.618;1.474;2022-11-20T10:59:54;475.33;;;445.17;;
31974;SDS011;18500;43.618;1.474;2022-11-20T11:02:24;691.30;;;644.08;;
31974;SDS011;18500;43.618;1.474;2022-11-20T11:04:58;710.70;;;660.85;;
31974;SDS011;18500;43.618;1.474;2022-11-20T11:07:35;916.53;;;846.78;;
31974;SDS011;18500;43.618;1.474;2022-11-20T11:10:12;823.03;;;764.20;;
31974;SDS011;18500;43.618;1.474;2022-11-20T11:12:51;902.30;;;834.92;;
31974;SDS011;18500;43.618;1.474;2022-11-20T11:18:08;989.05;;;908.28;;
31974;SDS011;18500;43.618;1.474;2022-11-20T11:20:34;942.67;;;869.17;;
31974;SDS011;18500;43.618;1.474;2022-11-20T11:23:01;941.63;;;868.15;;
31974;SDS011;18500;43.618;1.474;2022-11-20T11:25:30;929.53;;;857.35;;
31974;SDS011;18500;43.618;1.474;2022-11-20T11:28:22;887.65;;;817.40;;
31974;SDS011;18500;43.618;1.474;2022-11-20T11:30:49;969.42;;;879.92;;
31974;SDS011;18500;43.618;1.474;2022-11-20T11:33:19;1040.68;;;940.72;;
31974;SDS011;18500;43.618;1.474;2022-11-20T11:35:46;872.22;;;803.70;;
31974;SDS011;18500;43.618;1.474;2022-11-20T11:38:19;838.28;;;774.45;;
31974;SDS011;18500;43.618;1.474;2022-11-20T11:40:48;1010.40;;;913.33;;
31974;SDS011;18500;43.618;1.474;2022-11-20T11:43:22;995.80;;;899.63;;
31974;SDS011;18500;43.618;1.474;2022-11-20T11:46:30;1108.90;;;996.05;;
31974;SDS011;18500;43.618;1.474;2022-11-20T11:49:11;1156.38;;;999.90;;
31974;SDS011;18500;43.618;1.474;2022-11-20T11:51:52;1057.72;;;952.30;;
31974;SDS011;18500;43.618;1.474;2022-11-20T12:00:16;1228.72;;;999.90;;
31974;SDS011;18500;43.618;1.474;2022-11-20T12:05:25;958.90;;;875.55;;
31974;SDS011;18500;43.618;1.474;2022-11-20T12:08:27;971.90;;;886.65;;
31974;SDS011;18500;43.618;1.474;2022-11-20T12:11:03;886.28;;;811.63;;
31974;SDS011;18500;43.618;1.474;2022-11-20T12:13:43;963.63;;;882.00;;
31974;SDS011;18500;43.618;1.474;2022-11-20T12:16:16;940.33;;;863.13;;
31974;SDS011;18500;43.618;1.474;2022-11-20T12:18:44;1149.28;;;999.90;;
31974;SDS011;18500;43.618;1.474;2022-11-20T12:34:33;1309.43;;;999.90;;
31974;SDS011;18500;43.618;1.474;2022-11-20T12:57:04;1197.45;;;999.90;;
31974;SDS011;18500;43.618;1.474;2022-11-20T13:02:17;1158.22;;;999.90;;
31974;SDS011;18500;43.618;1.474;2022-11-20T13:04:55;1111.80;;;993.70;;
31974;SDS011;18500;43.618;1.474;2022-11-20T13:07:37;1083.47;;;970.55;;
31974;SDS011;18500;43.618;1.474;2022-11-20T13:10:04;939.40;;;844.83;;
31974;SDS011;18500;43.618;1.474;2022-11-20T13:13:05;853.65;;;781.55;;
31974;SDS011;18500;43.618;1.474;2022-11-20T13:18:10;651.03;;;602.30;;
31974;SDS011;18500;43.618;1.474;2022-11-20T13:20:41;850.33;;;773.47;;
31974;SDS011;18500;43.618;1.474;2022-11-20T13:23:08;831.40;;;761.38;;
31974;SDS011;18500;43.618;1.474;2022-11-20T13:25:35;771.78;;;712.20;;
31974;SDS011;18500;43.618;1.474;2022-11-20T13:30:33;846.50;;;779.85;;
31974;SDS011;18500;43.618;1.474;2022-11-20T13:35:37;669.83;;;620.70;;
31974;SDS011;18500;43.618;1.474;2022-11-20T13:40:34;606.63;;;562.55;;
31974;SDS011;18500;43.618;1.474;2022-11-20T13:45:41;522.90;;;488.45;;
31974;SDS011;18500;43.618;1.474;2022-11-20T13:48:20;540.97;;;504.98;;
31974;SDS011;18500;43.618;1.474;2022-11-20T13:51:00;565.58;;;524.78;;
31974;SDS011;18500;43.618;1.474;2022-11-20T13:56:36;550.05;;;513.83;;
31974;SDS011;18500;43.618;1.474;2022-11-20T14:02:01;464.95;;;436.65;;
31974;SDS011;18500;43.618;1.474;2022-11-20T14:04:30;427.33;;;400.38;;
31974;SDS011;18500;43.618;1.474;2022-11-20T14:07:00;471.42;;;440.20;;
31974;SDS011;18500;43.618;1.474;2022-11-20T14:09:33;452.20;;;423.48;;
31974;SDS011;18500;43.618;1.474;2022-11-20T14:11:59;511.35;;;479.65;;
31974;SDS011;18500;43.618;1.474;2022-11-20T14:14:26;429.60;;;401.30;;
31974;SDS011;18500;43.618;1.474;2022-11-20T14:17:04;462.30;;;432.10;;
31974;SDS011;18500;43.618;1.474;2022-11-20T14:19:31;576.28;;;533.72;;
31974;SDS011;18500;43.618;1.474;2022-11-20T14:24:34;356.58;;;335.35;;
31974;SDS011;18500;43.618;1.474;2022-11-20T14:27:00;380.05;;;356.58;;
31974;SDS011;18500;43.618;1.474;2022-11-20T14:29:27;335.80;;;315.33;;
31974;SDS011;18500;43.618;1.474;2022-11-20T14:31:58;302.83;;;284.77;;
31974;SDS011;18500;43.618;1.474;2022-11-20T14:34:30;397.27;;;372.15;;
31974;SDS011;18500;43.618;1.474;2022-11-20T14:36:59;387.88;;;363.02;;
31974;SDS011;18500;43.618;1.474;2022-11-20T14:42:00;400.05;;;376.20;;
31974;SDS011;18500;43.618;1.474;2022-11-20T14:44:27;767.40;;;702.05;;
31974;SDS011;18500;43.618;1.474;2022-11-20T14:47:00;495.88;;;464.70;;
31974;SDS011;18500;43.618;1.474;2022-11-20T14:49:27;393.10;;;369.80;;
31974;SDS011;18500;43.618;1.474;2022-11-20T14:52:15;578.40;;;537.00;;
31974;SDS011;18500;43.618;1.474;2022-11-20T14:54:52;422.23;;;396.35;;
31974;SDS011;18500;43.618;1.474;2022-11-20T14:57:28;398.00;;;374.05;;
31974;SDS011;18500;43.618;1.474;2022-11-20T15:00:18;426.30;;;399.33;;
31974;SDS011;18500;43.618;1.474;2022-11-20T15:02:47;441.60;;;413.70;;
31974;SDS011;18500;43.618;1.474;2022-11-20T15:05:15;446.40;;;418.98;;
31974;SDS011;18500;43.618;1.474;2022-11-20T15:07:43;359.42;;;337.17;;
31974;SDS011;18500;43.618;1.474;2022-11-20T15:10:24;349.38;;;328.23;;
31974;SDS011;18500;43.618;1.474;2022-11-20T15:12:55;459.33;;;430.40;;
31974;SDS011;18500;43.618;1.474;2022-11-20T15:15:33;621.00;;;576.17;;
31974;SDS011;18500;43.618;1.474;2022-11-20T15:18:04;396.88;;;370.45;;
31974;SDS011;18500;43.618;1.474;2022-11-20T15:20:31;380.02;;;356.40;;
31974;SDS011;18500;43.618;1.474;2022-11-20T15:22:58;365.85;;;341.58;;
31974;SDS011;18500;43.618;1.474;2022-11-20T15:25:24;529.20;;;492.55;;
31974;SDS011;18500;43.618;1.474;2022-11-20T15:27:54;641.95;;;594.42;;
31974;SDS011;18500;43.618;1.474;2022-11-20T15:30:21;579.05;;;538.17;;
31974;SDS011;18500;43.618;1.474;2022-11-20T15:32:48;597.25;;;551.63;;
31974;SDS011;18500;43.618;1.474;2022-11-20T15:35:14;651.95;;;605.15;;
31974;SDS011;18500;43.618;1.474;2022-11-20T15:37:40;706.28;;;654.15;;
31974;SDS011;18500;43.618;1.474;2022-11-20T15:40:07;713.70;;;656.90;;
31974;SDS011;18500;43.618;1.474;2022-11-20T15:42:33;565.55;;;526.35;;
31974;SDS011;18500;43.618;1.474;2022-11-20T15:44:58;690.65;;;637.13;;
31974;SDS011;18500;43.618;1.474;2022-11-20T15:47:29;684.70;;;630.72;;
31974;SDS011;18500;43.618;1.474;2022-11-20T15:49:57;587.45;;;543.53;;
31974;SDS011;18500;43.618;1.474;2022-11-20T15:52:23;733.55;;;672.80;;
31974;SDS011;18500;43.618;1.474;2022-11-20T15:54:48;743.45;;;683.28;;
31974;SDS011;18500;43.618;1.474;2022-11-20T15:57:14;789.45;;;722.15;;
31974;SDS011;18500;43.618;1.474;2022-11-20T15:59:40;737.13;;;676.55;;
31974;SDS011;18500;43.618;1.474;2022-11-20T16:02:13;696.85;;;641.63;;